McCullochs Mills, Pennsylvania
Current Conditions -  °F | °C
As of 11:35 PM on Saturday 25 Oct 2014 (Local Time) from KUNV Reporting Station
Clear Clear  
Wind Chill: 59°   Ceiling: Unl
Heat Index: 59°   Visibility: 10mi
Dew Point: 41°   Wind: 15mph
Humidity: 52%   Direction: 280°W
Pressure: 29.67"   Gusts: 20mph
Location:  40.4333°N, 77.5863°W
Report Text: KUNV 260335Z AUTO 28013G17KT 10SM CLR 15/05 A2967 RMK AO2 T01500052
Loading
Personal Weather Stations






























Interactive Weather Map
Tropical Storm Tracking
New forecast layout! Learn more

10-Day Weather Forecast

Advertisements
Track Severe Weather on mobile